createdAt,value
2022-08-09T00:00:23.113Z,100770.25
2022-08-09T00:02:51.637Z,100769.88
2022-08-09T00:06:17.737Z,100776.97
2022-08-09T00:08:11.334Z,100776.28
2022-08-09T00:10:40.655Z,100772.94
2022-08-09T00:13:16.821Z,100777.81
2022-08-09T00:15:58.923Z,100769.88
2022-08-09T00:18:34.708Z,100775.94
2022-08-09T00:21:08.509Z,100776.69
2022-08-09T00:23:54.642Z,100770.06
2022-08-09T00:26:29.890Z,100778.47
2022-08-09T00:29:01.734Z,100776.16
2022-08-09T00:31:58.633Z,100785.38
2022-08-09T00:34:19.052Z,100780.75
2022-08-09T00:36:48.951Z,100774.75
2022-08-09T00:40:12.838Z,100774.63
2022-08-09T00:44:14.815Z,100771.56
2022-08-09T00:44:52.263Z,100774.44
2022-08-09T00:47:24.780Z,100768.34
2022-08-09T00:49:54.922Z,100776.47
2022-08-09T00:52:30.487Z,100772.31
2022-08-09T00:55:02.010Z,100776.59
2022-08-09T00:57:34.256Z,100776.72
2022-08-09T01:00:21.926Z,100776.25
2022-08-09T01:03:01.522Z,100775.97
2022-08-09T01:05:54.838Z,100784.94
2022-08-09T01:09:00.790Z,100786.66
2022-08-09T01:12:16.431Z,100791.72
2022-08-09T01:15:17.921Z,100794.66
2022-08-09T01:18:03.446Z,100787.25
2022-08-09T01:21:13.527Z,100779.09
2022-08-09T01:24:05.020Z,100792.22
2022-08-09T01:26:46.246Z,100789.16
2022-08-09T01:29:16.094Z,100786.22
2022-08-09T01:32:32.446Z,100793.13
2022-08-09T01:34:35.830Z,100792.69
2022-08-09T01:37:09.300Z,100797.97
2022-08-09T01:39:38.393Z,100793.78
2022-08-09T01:42:10.784Z,100786.00
2022-08-09T01:44:41.330Z,100789.84
2022-08-09T01:47:11.567Z,100786.75
2022-08-09T01:49:39.886Z,100781.41
2022-08-09T01:52:14.835Z,100794.50
2022-08-09T01:54:48.507Z,100793.50
2022-08-09T01:57:25.451Z,100795.72
2022-08-09T02:00:00.350Z,100795.84
2022-08-09T02:02:42.628Z,100801.16
2022-08-09T02:05:15.915Z,100807.50
2022-08-09T02:08:39.640Z,100806.47
2022-08-09T02:10:51.852Z,100814.63
2022-08-09T02:13:26.221Z,100808.59
2022-08-09T02:16:07.908Z,100808.69
2022-08-09T02:18:38.413Z,100812.63
2022-08-09T02:21:17.043Z,100824.13
2022-08-09T02:23:54.847Z,100825.88
2022-08-09T02:26:27.372Z,100820.25
2022-08-09T02:29:00.439Z,100825.44
2022-08-09T02:31:36.282Z,100827.44
2022-08-09T02:34:13.184Z,100828.97
2022-08-09T02:36:55.674Z,100826.53
2022-08-09T02:39:39.889Z,100815.97
2022-08-09T02:42:17.228Z,100829.50
2022-08-09T02:45:15.391Z,100827.66
2022-08-09T02:47:46.645Z,100829.84
2022-08-09T02:50:30.457Z,100839.56
2022-08-09T02:53:03.931Z,100829.50
2022-08-09T02:55:46.503Z,100832.59
2022-08-09T02:58:35.439Z,100830.97
2022-08-09T03:01:07.974Z,100824.88
2022-08-09T03:04:16.492Z,100823.50
2022-08-09T03:06:27.426Z,100825.03
2022-08-09T03:08:55.961Z,100829.97
2022-08-09T03:11:29.904Z,100832.97
2022-08-09T03:14:13.603Z,100828.16
2022-08-09T03:16:45.046Z,100833.13
2022-08-09T03:19:52.449Z,100834.41
2022-08-09T03:22:12.039Z,100831.28
2022-08-09T03:24:52.246Z,100837.50
2022-08-09T03:27:22.270Z,100838.66
2022-08-09T03:29:57.777Z,100833.66
2022-08-09T03:32:31.565Z,100844.78
2022-08-09T03:35:00.493Z,100844.16
2022-08-09T03:37:55.421Z,100842.44
2022-08-09T03:40:17.018Z,100840.38
2022-08-09T03:42:46.700Z,100851.19
2022-08-09T03:45:15.515Z,100852.78
2022-08-09T03:47:46.433Z,100861.31
2022-08-09T03:50:18.882Z,100851.28
2022-08-09T03:52:58.424Z,100859.81
2022-08-09T03:55:27.217Z,100859.50
2022-08-09T03:58:06.411Z,100859.31
2022-08-09T04:00:44.630Z,100865.34
2022-08-09T04:03:19.591Z,100864.34
2022-08-09T04:05:52.262Z,100869.50
2022-08-09T04:08:19.473Z,100869.22
2022-08-09T04:10:56.363Z,100877.38
2022-08-09T04:14:36.734Z,100882.31
2022-08-09T04:16:20.471Z,100888.00
2022-08-09T04:18:49.246Z,100883.13
2022-08-09T04:21:19.067Z,100890.81
2022-08-09T04:23:53.802Z,100893.75
2022-08-09T04:26:23.316Z,100897.97
2022-08-09T04:28:50.810Z,100886.38
2022-08-09T04:31:19.310Z,100897.97
2022-08-09T04:33:56.570Z,100903.59
2022-08-09T04:36:27.158Z,100901.00
2022-08-09T04:38:56.829Z,100899.50
2022-08-09T04:41:33.067Z,100905.34
2022-08-09T04:44:06.328Z,100908.25
2022-08-09T04:46:57.421Z,100907.56
2022-08-09T04:49:40.206Z,100908.50
2022-08-09T04:52:27.322Z,100906.22
2022-08-09T04:55:00.609Z,100898.34
2022-08-09T04:57:59.411Z,100908.19
2022-08-09T05:00:16.988Z,100898.75
2022-08-09T05:02:51.765Z,100902.34
2022-08-09T05:05:32.352Z,100902.53
2022-08-09T05:08:08.081Z,100907.03
2022-08-09T05:10:36.745Z,100911.84
2022-08-09T05:13:04.272Z,100919.84
2022-08-09T05:15:39.434Z,100920.59
2022-08-09T05:18:38.009Z,100923.47
2022-08-09T05:21:02.674Z,100928.75
2022-08-09T05:23:58.038Z,100937.09
2022-08-09T05:26:36.577Z,100930.34
2022-08-09T05:29:17.360Z,100932.44
2022-08-09T05:31:56.347Z,100944.69
2022-08-09T05:34:31.267Z,100938.72
2022-08-09T05:37:11.344Z,100943.69
2022-08-09T05:39:43.602Z,100942.56
2022-08-09T05:42:17.774Z,100945.69
2022-08-09T05:44:50.647Z,100933.78
2022-08-09T05:47:22.800Z,100934.16
2022-08-09T05:50:26.746Z,100931.97
2022-08-09T05:52:41.803Z,100936.44
2022-08-09T05:55:20.649Z,100943.97
2022-08-09T05:57:55.877Z,100940.88
2022-08-09T06:00:30.305Z,100933.19
2022-08-09T06:03:03.863Z,100940.06
2022-08-09T06:05:57.169Z,100931.13
2022-08-09T06:08:25.269Z,100948.03
2022-08-09T06:10:56.980Z,100947.44
2022-08-09T06:13:28.282Z,100947.22
2022-08-09T06:16:01.565Z,100950.56
2022-08-09T06:18:32.397Z,100937.75
2022-08-09T06:20:59.770Z,100952.47
2022-08-09T06:23:55.577Z,100944.81
2022-08-09T06:26:20.346Z,100949.94
2022-08-09T06:28:59.552Z,100948.25
2022-08-09T06:31:31.015Z,100947.09
2022-08-09T06:33:58.686Z,100962.56
2022-08-09T06:36:27.330Z,100954.50
2022-08-09T06:38:57.500Z,100945.31
2022-08-09T06:41:57.493Z,100951.25
2022-08-09T06:44:18.271Z,100954.09
2022-08-09T06:46:45.783Z,100947.19
2022-08-09T06:49:15.983Z,100947.00
2022-08-09T06:51:49.735Z,100950.88
2022-08-09T06:54:20.339Z,100948.66
2022-08-09T06:56:47.392Z,100951.56
2022-08-09T07:00:56.456Z,100949.31
2022-08-09T07:02:04.414Z,100954.19
2022-08-09T07:04:32.620Z,100947.47
2022-08-09T07:07:00.942Z,100937.84
2022-08-09T07:09:55.637Z,100944.81
2022-08-09T07:12:20.303Z,100951.94
2022-08-09T07:14:51.167Z,100959.44
2022-08-09T07:17:20.349Z,100944.88
2022-08-09T07:19:50.530Z,100948.94
2022-08-09T07:22:18.731Z,100943.63
2022-08-09T07:25:05.471Z,100941.31
2022-08-09T07:27:42.942Z,100944.03
2022-08-09T07:30:14.891Z,100945.69
2022-08-09T07:32:43.026Z,100949.84
2022-08-09T07:35:14.798Z,100945.34
2022-08-09T07:37:46.175Z,100944.38
2022-08-09T07:40:20.491Z,100942.31
2022-08-09T07:43:00.470Z,100946.97
2022-08-09T07:45:37.731Z,100948.06
2022-08-09T07:48:06.101Z,100948.56
2022-08-09T07:50:36.514Z,100928.13
2022-08-09T07:53:05.366Z,100939.34
2022-08-09T07:56:02.751Z,100933.19
2022-08-09T07:58:21.497Z,100933.06
2022-08-09T08:00:59.072Z,100934.97
2022-08-09T08:03:36.960Z,100936.31
2022-08-09T08:06:05.343Z,100948.16
2022-08-09T08:09:00.310Z,100944.44
2022-08-09T08:12:09.186Z,100941.50
2022-08-09T08:14:07.127Z,100945.63
2022-08-09T08:16:36.103Z,100945.13
2022-08-09T08:19:06.697Z,100944.66
2022-08-09T08:21:34.159Z,100935.38
2022-08-09T08:24:12.219Z,100943.94
2022-08-09T08:26:56.108Z,100938.22
2022-08-09T08:29:27.428Z,100939.19
2022-08-09T08:32:03.479Z,100943.50
2022-08-09T08:34:34.506Z,100950.09
2022-08-09T08:37:02.529Z,100949.00
2022-08-09T08:39:38.205Z,100945.75
2022-08-09T08:42:10.839Z,100939.59
2022-08-09T08:44:39.488Z,100941.09
2022-08-09T08:47:12.917Z,100945.41
2022-08-09T08:49:47.703Z,100945.34
2022-08-09T08:52:57.769Z,100940.84
2022-08-09T08:55:10.734Z,100942.72
2022-08-09T08:57:41.006Z,100934.03
2022-08-09T09:00:20.511Z,100940.09
2022-08-09T09:03:11.510Z,100937.44
2022-08-09T09:05:58.264Z,100936.41
2022-08-09T09:08:42.212Z,100942.91
2022-08-09T09:11:17.393Z,100937.31
2022-08-09T09:13:55.587Z,100928.22
2022-08-09T09:16:30.195Z,100936.94
2022-08-09T09:19:37.318Z,100939.78
2022-08-09T09:22:05.390Z,100919.16
2022-08-09T09:24:43.199Z,100927.84
2022-08-09T09:27:47.205Z,100924.78
2022-08-09T09:30:28.918Z,100926.72
2022-08-09T09:33:14.394Z,100918.31
2022-08-09T09:36:02.321Z,100912.59
2022-08-09T09:38:53.047Z,100917.16
2022-08-09T09:41:26.345Z,100927.66
2022-08-09T09:44:12.760Z,100920.22
2022-08-09T09:46:46.104Z,100915.63
2022-08-09T09:49:56.219Z,100902.06
2022-08-09T09:52:16.320Z,100906.28
2022-08-09T09:55:23.927Z,100901.03
2022-08-09T09:58:15.703Z,100897.63
2022-08-09T10:00:52.582Z,100897.13
2022-08-09T10:03:42.678Z,100891.41
2022-08-09T10:06:11.667Z,100881.66
2022-08-09T10:08:54.190Z,100891.53
2022-08-09T10:12:00.043Z,100883.03
2022-08-09T10:14:33.105Z,100876.31
2022-08-09T10:17:51.071Z,100874.22
2022-08-09T10:20:00.194Z,100868.97
2022-08-09T10:22:37.111Z,100873.47
2022-08-09T10:25:12.115Z,100873.44
2022-08-09T10:27:55.986Z,100862.44
2022-08-09T10:33:29.829Z,100861.84
2022-08-09T10:36:04.559Z,100858.50
2022-08-09T10:38:54.336Z,100852.91
2022-08-09T10:41:20.487Z,100852.13
2022-08-09T10:43:59.647Z,100847.13
2022-08-09T10:47:03.753Z,100853.22
2022-08-09T10:49:51.466Z,100843.34
2022-08-09T10:56:30.297Z,100833.00
2022-08-09T10:59:01.165Z,100839.63
2022-08-09T11:03:16.003Z,100838.53
2022-08-09T11:04:32.521Z,100829.94
2022-08-09T11:07:00.884Z,100835.66
2022-08-09T11:09:47.637Z,100833.78
2022-08-09T11:12:26.501Z,100814.50
2022-08-09T11:15:24.344Z,100816.84
2022-08-09T11:18:02.814Z,100816.50
2022-08-09T11:20:43.307Z,100813.38
2022-08-09T11:23:11.496Z,100805.88
2022-08-09T11:25:47.804Z,100811.50
2022-08-09T11:28:56.073Z,100811.97
2022-08-09T11:31:50.171Z,100804.22
2022-08-09T11:34:44.171Z,100806.44
2022-08-09T11:37:31.264Z,100796.25
2022-08-09T11:40:17.761Z,100791.94
2022-08-09T11:42:49.667Z,100793.00
2022-08-09T11:45:37.968Z,100796.50
2022-08-09T11:48:28.215Z,100796.22
2022-08-09T11:53:02.252Z,100796.50
2022-08-09T11:54:00.603Z,100799.16
2022-08-09T11:56:41.380Z,100786.81
2022-08-09T11:59:33.029Z,100786.03
2022-08-09T12:02:18.010Z,100781.94
2022-08-09T12:04:54.671Z,100785.69
2022-08-09T12:07:41.643Z,100779.81
2022-08-09T12:10:14.469Z,100777.66
2022-08-09T12:13:00.315Z,100791.03
2022-08-09T12:15:50.204Z,100784.03
2022-08-09T12:18:29.889Z,100784.06
2022-08-09T12:20:59.312Z,100777.94
2022-08-09T12:23:57.954Z,100779.00
2022-08-09T12:26:19.825Z,100780.03
2022-08-09T12:29:11.739Z,100779.81
2022-08-09T12:32:01.551Z,100777.41
2022-08-09T12:34:39.986Z,100777.28
2022-08-09T12:37:22.184Z,100787.88
2022-08-09T12:40:07.040Z,100768.22
2022-08-09T12:42:37.345Z,100762.63
2022-08-09T12:45:32.492Z,100758.06
2022-08-09T12:47:53.713Z,100767.47
2022-08-09T12:50:23.511Z,100764.22
2022-08-09T12:53:08.471Z,100745.66
2022-08-09T12:56:15.778Z,100759.63
2022-08-09T12:58:27.666Z,100767.97
2022-08-09T13:00:56.471Z,100748.09
2022-08-09T13:03:57.269Z,100736.28
2022-08-09T13:06:42.176Z,100752.16
2022-08-09T13:09:12.515Z,100751.28
2022-08-09T13:11:47.871Z,100755.34
2022-08-09T13:14:42.349Z,100751.88
2022-08-09T13:17:44.439Z,100746.78
2022-08-09T13:20:17.518Z,100743.25
2022-08-09T13:23:01.605Z,100739.16
2022-08-09T13:25:42.826Z,100732.09
2022-08-09T13:28:24.525Z,100737.84
2022-08-09T13:32:16.241Z,100736.75
2022-08-09T13:33:58.567Z,100716.84
2022-08-09T13:36:42.107Z,100726.03
2022-08-09T13:41:19.451Z,100725.19
2022-08-09T13:42:12.360Z,100728.75
2022-08-09T13:44:42.799Z,100729.28
2022-08-09T13:47:29.404Z,100726.06
2022-08-09T13:50:30.339Z,100731.19
2022-08-09T13:52:59.224Z,100734.63
2022-08-09T13:55:29.054Z,100720.69
2022-08-09T13:57:58.391Z,100720.13
2022-08-09T14:00:29.329Z,100721.97
2022-08-09T14:03:03.976Z,100712.28
2022-08-09T14:05:58.860Z,100714.13
2022-08-09T14:08:30.723Z,100703.50
2022-08-09T14:11:00.454Z,100705.31
2022-08-09T14:14:22.356Z,100705.50
2022-08-09T14:16:19.836Z,100719.06
2022-08-09T14:18:57.164Z,100713.19
2022-08-09T14:21:29.082Z,100710.47
2022-08-09T14:24:00.949Z,100701.28
2022-08-09T14:26:33.459Z,100695.88
2022-08-09T14:29:07.756Z,100698.63
2022-08-09T14:31:54.226Z,100693.38
2022-08-09T14:34:30.872Z,100680.28
2022-08-09T14:37:06.758Z,100680.28
2022-08-09T14:39:40.109Z,100687.59
2022-08-09T14:42:13.632Z,100679.13
2022-08-09T14:44:59.333Z,100671.22
2022-08-09T14:47:44.790Z,100686.13
2022-08-09T14:50:16.247Z,100680.72
2022-08-09T14:52:47.831Z,100672.47
2022-08-09T14:55:20.249Z,100674.69
2022-08-09T14:57:48.832Z,100671.50
2022-08-09T15:00:16.939Z,100679.72
2022-08-09T15:02:47.555Z,100674.88
2022-08-09T15:05:18.934Z,100670.00
2022-08-09T15:07:56.650Z,100677.44
2022-08-09T15:10:31.719Z,100672.72
2022-08-09T15:13:03.170Z,100664.06
2022-08-09T15:15:34.504Z,100658.75
2022-08-09T15:18:07.639Z,100658.63
2022-08-09T15:21:56.348Z,100658.69
2022-08-09T15:24:03.041Z,100657.47
2022-08-09T15:26:18.774Z,100656.72
2022-08-09T15:28:58.050Z,100649.16
2022-08-09T15:31:41.884Z,100660.13
2022-08-09T15:34:33.151Z,100657.84
2022-08-09T15:36:58.161Z,100652.00
2022-08-09T15:39:25.962Z,100650.31
2022-08-09T15:42:02.907Z,100652.03
2022-08-09T15:44:32.612Z,100652.09
2022-08-09T15:47:00.939Z,100649.13
2022-08-09T15:49:28.543Z,100643.78
2022-08-09T15:52:04.392Z,100646.91
2022-08-09T15:54:46.219Z,100651.56
2022-08-09T15:57:35.015Z,100644.94
2022-08-09T16:00:25.763Z,100643.41
2022-08-09T16:02:57.938Z,100638.41
2022-08-09T16:05:47.226Z,100644.28
2022-08-09T16:08:30.139Z,100640.97
2022-08-09T16:11:02.673Z,100637.38
2022-08-09T16:14:03.839Z,100643.09
2022-08-09T16:16:19.301Z,100632.03
2022-08-09T16:18:47.738Z,100641.66
2022-08-09T16:21:17.772Z,100647.16
2022-08-09T16:23:58.567Z,100647.44
2022-08-09T16:26:34.435Z,100655.03
2022-08-09T16:29:14.160Z,100645.41
2022-08-09T16:32:19.002Z,100639.44
2022-08-09T16:34:53.604Z,100642.44
2022-08-09T16:37:54.550Z,100644.03
2022-08-09T16:40:11.693Z,100642.72
2022-08-09T16:42:44.850Z,100638.94
2022-08-09T16:45:14.018Z,100629.22
2022-08-09T16:48:41.363Z,100632.97
2022-08-09T16:50:33.930Z,100632.97
2022-08-09T16:53:03.234Z,100634.88
2022-08-09T16:55:59.841Z,100622.13
2022-08-09T16:58:21.038Z,100634.88
2022-08-09T17:00:49.536Z,100629.25
2022-08-09T17:03:21.588Z,100630.06
2022-08-09T17:06:03.422Z,100639.75
2022-08-09T17:08:58.881Z,100634.09
2022-08-09T17:11:40.608Z,100632.16
2022-08-09T17:14:25.486Z,100647.56
2022-08-09T17:17:02.257Z,100640.81
2022-08-09T17:19:47.572Z,100640.03
2022-08-09T17:22:28.910Z,100646.22
2022-08-09T17:25:03.346Z,100642.19
2022-08-09T17:27:38.238Z,100647.03
2022-08-09T17:30:12.816Z,100649.72
2022-08-09T17:32:45.248Z,100647.28
2022-08-09T17:35:14.460Z,100654.03
2022-08-09T17:38:11.659Z,100659.13
2022-08-09T17:40:33.258Z,100661.47
2022-08-09T17:43:32.255Z,100656.72
2022-08-09T17:46:03.580Z,100657.78
2022-08-09T17:48:38.836Z,100660.81
2022-08-09T17:51:18.641Z,100657.06
2022-08-09T17:53:53.565Z,100654.00
2022-08-09T17:56:35.361Z,100662.59
2022-08-09T17:59:09.361Z,100669.50
2022-08-09T18:02:03.295Z,100669.22
2022-08-09T18:04:27.773Z,100681.88
2022-08-09T18:06:55.752Z,100682.72
2022-08-09T18:09:40.673Z,100691.19
2022-08-09T18:12:19.360Z,100690.53
2022-08-09T18:14:54.140Z,100691.56
2022-08-09T18:18:02.753Z,100692.56
2022-08-09T18:20:54.310Z,100696.63
2022-08-09T18:23:05.514Z,100691.47
2022-08-09T18:25:52.661Z,100691.19
2022-08-09T18:30:38.427Z,100694.94
2022-08-09T18:31:14.305Z,100699.56
2022-08-09T18:33:44.285Z,100703.84
2022-08-09T18:36:25.934Z,100709.28
2022-08-09T18:39:02.744Z,100707.09
2022-08-09T18:41:34.972Z,100709.38
2022-08-09T18:44:13.275Z,100715.59
2022-08-09T18:46:49.769Z,100725.41
2022-08-09T18:49:27.942Z,100726.78
2022-08-09T18:51:59.316Z,100724.38
2022-08-09T18:54:28.668Z,100730.19
2022-08-09T18:57:05.840Z,100729.13
2022-08-09T18:59:48.431Z,100733.44
2022-08-09T19:02:18.361Z,100737.53
2022-08-09T19:04:47.547Z,100742.75
2022-08-09T19:07:31.628Z,100748.66
2022-08-09T19:10:16.890Z,100750.72
2022-08-09T19:12:55.527Z,100757.19
2022-08-09T19:15:31.908Z,100754.59
2022-08-09T19:17:59.466Z,100758.75
2022-08-09T19:20:34.117Z,100757.03
2022-08-09T19:23:01.605Z,100766.06
2022-08-09T19:26:01.503Z,100762.22
2022-08-09T19:28:16.702Z,100763.63
2022-08-09T19:30:44.883Z,100761.66
2022-08-09T19:33:19.579Z,100765.72
2022-08-09T19:35:56.952Z,100771.38
2022-08-09T19:38:27.063Z,100766.50
2022-08-09T19:40:54.821Z,100766.53
2022-08-09T19:44:01.721Z,100772.53
2022-08-09T19:46:14.445Z,100764.84
2022-08-09T19:49:01.667Z,100777.25
2022-08-09T19:51:30.935Z,100775.84
2022-08-09T19:53:59.520Z,100774.72
2022-08-09T19:56:28.525Z,100777.94
2022-08-09T19:59:40.548Z,100781.16
2022-08-09T20:02:04.452Z,100782.97
2022-08-09T20:04:37.751Z,100779.72
2022-08-09T20:07:21.105Z,100777.28
2022-08-09T20:09:48.905Z,100782.13
2022-08-09T20:12:31.688Z,100782.38
2022-08-09T20:16:31.620Z,100783.81
2022-08-09T20:17:54.852Z,100782.28
2022-08-09T20:20:24.652Z,100787.22
2022-08-09T20:22:56.454Z,100785.47
2022-08-09T20:25:24.252Z,100785.16
2022-08-09T20:27:52.370Z,100789.13
2022-08-09T20:30:21.700Z,100784.53
2022-08-09T20:32:52.311Z,100787.38
2022-08-09T20:35:21.264Z,100788.63
2022-08-09T20:38:23.423Z,100789.16
2022-08-09T20:40:36.868Z,100787.16
2022-08-09T20:43:19.158Z,100790.72
2022-08-09T20:45:56.850Z,100785.75
2022-08-09T20:48:25.778Z,100791.06
2022-08-09T20:50:58.273Z,100793.59
2022-08-09T20:53:37.225Z,100786.94
2022-08-09T20:56:20.216Z,100790.47
2022-08-09T20:58:58.216Z,100791.44
2022-08-09T21:01:35.351Z,100794.63
2022-08-09T21:05:55.220Z,100794.25
2022-08-09T21:07:11.328Z,100800.44
2022-08-09T21:09:45.577Z,100800.63
2022-08-09T21:14:42.453Z,100800.63
2022-08-09T21:18:23.187Z,100805.50
2022-08-09T21:20:17.590Z,100802.97
2022-08-09T21:22:54.300Z,100807.22
2022-08-09T21:25:43.982Z,100806.84
2022-08-09T21:28:36.327Z,100807.69
2022-08-09T21:31:17.857Z,100807.25
2022-08-09T21:33:52.135Z,100808.91
2022-08-09T21:36:23.046Z,100806.03
2022-08-09T21:38:57.448Z,100807.94
2022-08-09T21:42:04.871Z,100808.16
2022-08-09T21:44:34.029Z,100808.63
2022-08-09T21:47:04.896Z,100813.38
2022-08-09T21:49:40.126Z,100810.72
2022-08-09T21:52:17.591Z,100815.22
2022-08-09T21:55:03.047Z,100817.25
2022-08-09T21:57:38.971Z,100823.22
2022-08-09T22:00:36.311Z,100812.00
2022-08-09T22:03:12.666Z,100820.59
2022-08-09T22:05:47.548Z,100819.81
2022-08-09T22:08:18.485Z,100831.06
2022-08-09T22:11:49.671Z,100829.63
2022-08-09T22:13:36.670Z,100829.66
2022-08-09T22:16:08.841Z,100836.94
2022-08-09T22:18:38.656Z,100845.53
2022-08-09T22:21:45.104Z,100835.94
2022-08-09T22:24:17.147Z,100836.22
2022-08-09T22:26:51.642Z,100841.75
2022-08-09T22:29:24.016Z,100851.38
2022-08-09T22:31:57.370Z,100847.78
2022-08-09T22:34:28.164Z,100855.97
2022-08-09T22:36:58.161Z,100850.69
2022-08-09T22:39:55.511Z,100853.56
2022-08-09T22:42:20.938Z,100855.56
2022-08-09T22:45:00.038Z,100857.59
2022-08-09T22:48:10.966Z,100862.38
2022-08-09T22:50:26.341Z,100861.72
2022-08-09T22:52:54.907Z,100867.50
2022-08-09T22:55:39.405Z,100877.38
2022-08-09T22:58:30.710Z,100873.09
2022-08-09T23:01:03.257Z,100868.94
2022-08-09T23:04:03.398Z,100871.94
2022-08-09T23:06:32.811Z,100878.22
2022-08-09T23:09:06.149Z,100870.47
2022-08-09T23:11:33.317Z,100862.78
2022-08-09T23:14:00.350Z,100860.88
2022-08-09T23:16:27.436Z,100859.81
2022-08-09T23:18:54.695Z,100854.88
2022-08-09T23:21:24.595Z,100854.28
2022-08-09T23:24:04.137Z,100852.56
2022-08-09T23:26:35.672Z,100845.59
2022-08-09T23:29:04.057Z,100853.44
2022-08-09T23:31:30.995Z,100857.72
2022-08-09T23:33:58.055Z,100862.28
2022-08-09T23:36:25.007Z,100861.13
2022-08-09T23:38:51.927Z,100850.84
2022-08-09T23:41:29.036Z,100863.31
2022-08-09T23:43:58.579Z,100859.31
2022-08-09T23:46:26.000Z,100862.81
2022-08-09T23:48:53.109Z,100861.19
2022-08-09T23:51:20.194Z,100856.25
2022-08-09T23:53:47.424Z,100853.63
2022-08-09T23:56:17.471Z,100849.41
2022-08-09T23:59:04.659Z,100860.44
